createdAt,value
2019-04-29T00:01:41.039Z,100492.82
2019-04-29T00:04:14.115Z,100498.37
2019-04-29T00:06:47.928Z,100495.58
2019-04-29T00:09:22.019Z,100493.08
2019-04-29T00:11:55.455Z,100490.41
2019-04-29T00:14:30.602Z,100494.80
2019-04-29T00:17:13.087Z,100494.48
2019-04-29T00:19:55.387Z,100495.55
2019-04-29T00:22:29.109Z,100499.81
2019-04-29T00:25:02.495Z,100503.83
2019-04-29T00:27:36.506Z,100496.23
2019-04-29T00:30:13.891Z,100493.97
2019-04-29T00:32:46.911Z,100498.28
2019-04-29T00:35:20.500Z,100502.39
2019-04-29T00:38:27.683Z,100490.39
2019-04-29T00:41:22.997Z,100495.52
2019-04-29T00:44:01.332Z,100493.89
2019-04-29T00:46:34.801Z,100503.44
2019-04-29T00:49:07.361Z,100496.26
2019-04-29T00:51:43.325Z,100502.14
2019-04-29T00:54:26.322Z,100502.48
2019-04-29T00:56:58.873Z,100507.45
2019-04-29T00:59:31.943Z,100503.42
2019-04-29T01:02:06.166Z,100506.73
2019-04-29T01:04:39.941Z,100505.20
2019-04-29T01:07:12.977Z,100513.00
2019-04-29T01:09:46.855Z,100508.81
2019-04-29T01:12:20.770Z,100504.83
2019-04-29T01:14:54.046Z,100500.95
2019-04-29T01:17:28.080Z,100508.36
2019-04-29T01:20:01.759Z,100515.76
2019-04-29T01:22:35.301Z,100503.88
2019-04-29T01:25:08.580Z,100511.17
2019-04-29T01:27:48.767Z,100511.27
2019-04-29T01:30:50.362Z,100516.40
2019-04-29T01:33:23.899Z,100510.89
2019-04-29T01:36:10.697Z,100510.89
2019-04-29T01:38:43.496Z,100509.48
2019-04-29T01:41:20.489Z,100514.69
2019-04-29T01:44:04.496Z,100513.12
2019-04-29T01:46:37.404Z,100520.20
2019-04-29T01:49:10.281Z,100519.27
2019-04-29T01:51:43.342Z,100511.45
2019-04-29T01:54:16.329Z,100508.45
2019-04-29T01:56:49.666Z,100514.92
2019-04-29T01:59:23.028Z,100517.20
2019-04-29T02:01:56.019Z,100522.27
2019-04-29T02:04:29.042Z,100528.64
2019-04-29T02:07:02.926Z,100522.27
2019-04-29T02:09:46.561Z,100528.97
2019-04-29T02:12:20.194Z,100520.28
2019-04-29T02:14:53.981Z,100521.87
2019-04-29T02:17:27.881Z,100524.75
2019-04-29T02:20:01.482Z,100523.22
2019-04-29T02:22:42.804Z,100524.42
2019-04-29T02:25:20.122Z,100524.38
2019-04-29T02:27:53.519Z,100528.31
2019-04-29T02:30:41.138Z,100525.20
2019-04-29T02:33:13.739Z,100525.97
2019-04-29T02:35:47.151Z,100523.88
2019-04-29T02:38:41.812Z,100518.81
2019-04-29T02:41:22.282Z,100515.85
2019-04-29T02:43:57.634Z,100523.61
2019-04-29T02:46:30.629Z,100527.64
2019-04-29T02:49:03.647Z,100524.73
2019-04-29T02:51:48.650Z,100520.12
2019-04-29T02:54:23.096Z,100515.59
2019-04-29T02:57:02.276Z,100516.77
2019-04-29T02:59:39.640Z,100508.19
2019-04-29T03:02:29.108Z,100508.37
2019-04-29T03:05:20.209Z,100508.59
2019-04-29T03:07:53.145Z,100505.04
2019-04-29T03:10:26.223Z,100504.16
2019-04-29T03:12:59.939Z,100500.02
2019-04-29T03:15:33.828Z,100502.77
2019-04-29T03:18:06.823Z,100495.48
2019-04-29T03:20:53.657Z,100496.58
2019-04-29T03:23:27.247Z,100500.20
2019-04-29T03:25:59.905Z,100506.25
2019-04-29T03:28:32.688Z,100512.85
2019-04-29T03:31:05.101Z,100504.55
2019-04-29T03:33:38.486Z,100498.98
2019-04-29T03:36:11.885Z,100501.00
2019-04-29T03:38:44.975Z,100501.59
2019-04-29T03:41:18.449Z,100511.87
2019-04-29T03:43:51.736Z,100507.34
2019-04-29T03:46:25.121Z,100505.22
2019-04-29T03:48:57.634Z,100504.65
2019-04-29T03:51:30.610Z,100506.00
2019-04-29T03:54:03.714Z,100500.70
2019-04-29T03:56:37.109Z,100506.80
2019-04-29T03:59:10.728Z,100502.89
2019-04-29T04:01:52.283Z,100503.98
2019-04-29T04:04:44.816Z,100509.36
2019-04-29T04:07:36.128Z,100516.89
2019-04-29T04:10:09.443Z,100514.69
2019-04-29T04:12:42.468Z,100520.70
2019-04-29T04:15:15.214Z,100520.70
2019-04-29T04:17:57.537Z,100518.73
2019-04-29T04:20:31.090Z,100517.33
2019-04-29T04:23:04.163Z,100515.19
2019-04-29T04:25:37.480Z,100511.20
2019-04-29T04:28:10.161Z,100515.01
2019-04-29T04:30:44.066Z,100516.04
2019-04-29T04:33:17.295Z,100519.84
2019-04-29T04:35:49.874Z,100525.45
2019-04-29T04:38:22.732Z,100521.45
2019-04-29T04:41:03.253Z,100527.72
2019-04-29T04:43:35.869Z,100527.81
2019-04-29T04:46:09.677Z,100527.97
2019-04-29T04:48:42.744Z,100527.28
2019-04-29T04:51:16.131Z,100528.34
2019-04-29T04:53:49.836Z,100536.20
2019-04-29T04:56:23.232Z,100529.50
2019-04-29T04:58:56.191Z,100531.45
2019-04-29T05:01:29.259Z,100534.03
2019-04-29T05:04:02.233Z,100533.11
2019-04-29T05:06:35.529Z,100536.64
2019-04-29T05:09:08.921Z,100546.40
2019-04-29T05:11:42.796Z,100543.20
2019-04-29T05:14:15.713Z,100548.05
2019-04-29T05:16:49.128Z,100549.08
2019-04-29T05:19:22.849Z,100547.08
2019-04-29T05:21:56.553Z,100548.79
2019-04-29T05:24:32.201Z,100550.28
2019-04-29T05:27:04.883Z,100558.06
2019-04-29T05:29:38.360Z,100556.66
2019-04-29T05:32:12.191Z,100559.30
2019-04-29T05:34:48.282Z,100555.94
2019-04-29T05:37:30.221Z,100563.78
2019-04-29T05:40:04.095Z,100567.51
2019-04-29T05:42:37.038Z,100561.54
2019-04-29T05:45:21.699Z,100564.23
2019-04-29T05:48:05.498Z,100570.30
2019-04-29T05:50:52.038Z,100569.53
2019-04-29T05:53:33.001Z,100577.19
2019-04-29T05:56:06.502Z,100570.76
2019-04-29T05:58:40.297Z,100571.23
2019-04-29T06:01:18.497Z,100576.22
2019-04-29T06:03:52.043Z,100578.97
2019-04-29T06:06:25.505Z,100585.35
2019-04-29T06:08:58.584Z,100587.36
2019-04-29T06:11:32.255Z,100591.61
2019-04-29T06:14:05.790Z,100587.38
2019-04-29T06:16:38.696Z,100586.72
2019-04-29T06:19:13.321Z,100578.12
2019-04-29T06:21:46.750Z,100576.33
2019-04-29T06:24:20.116Z,100587.98
2019-04-29T06:26:53.213Z,100587.08
2019-04-29T06:29:27.053Z,100584.34
2019-04-29T06:32:00.006Z,100588.20
2019-04-29T06:34:35.530Z,100588.73
2019-04-29T06:37:06.901Z,100594.73
2019-04-29T06:39:40.393Z,100595.02
2019-04-29T06:42:15.450Z,100596.31
2019-04-29T06:44:49.320Z,100599.89
2019-04-29T06:47:22.664Z,100599.20
2019-04-29T06:49:55.704Z,100610.64
2019-04-29T06:52:29.519Z,100604.54
2019-04-29T06:55:02.938Z,100602.14
2019-04-29T06:57:37.354Z,100612.52
2019-04-29T07:00:10.635Z,100605.64
2019-04-29T07:02:45.562Z,100604.30
2019-04-29T07:05:18.657Z,100595.12
2019-04-29T07:07:51.999Z,100604.11
2019-04-29T07:10:27.135Z,100599.05
2019-04-29T07:13:00.702Z,100602.28
2019-04-29T07:15:34.133Z,100600.75
2019-04-29T07:18:06.793Z,100607.34
2019-04-29T07:20:39.748Z,100609.94
2019-04-29T07:23:13.787Z,100607.05
2019-04-29T07:25:46.782Z,100610.79
2019-04-29T07:28:20.750Z,100604.98
2019-04-29T07:31:02.645Z,100617.03
2019-04-29T07:33:28.373Z,100608.60
2019-04-29T07:36:10.884Z,100608.38
2019-04-29T07:38:41.635Z,100609.83
2019-04-29T07:41:14.380Z,100616.30
2019-04-29T07:43:48.334Z,100614.34
2019-04-29T07:46:56.418Z,100618.23
2019-04-29T07:49:18.805Z,100615.22
2019-04-29T07:51:52.823Z,100618.07
2019-04-29T07:54:25.869Z,100613.20
2019-04-29T07:56:59.280Z,100608.33
2019-04-29T07:59:33.850Z,100606.73
2019-04-29T08:02:07.701Z,100606.52
2019-04-29T08:04:40.901Z,100616.94
2019-04-29T08:07:14.945Z,100614.97
2019-04-29T08:09:48.394Z,100615.73
2019-04-29T08:12:22.289Z,100608.56
2019-04-29T08:14:58.492Z,100606.95
2019-04-29T08:17:32.633Z,100609.57
2019-04-29T08:20:06.521Z,100606.50
2019-04-29T08:22:43.267Z,100605.52
2019-04-29T08:25:16.974Z,100604.84
2019-04-29T08:27:49.553Z,100604.56
2019-04-29T08:30:22.936Z,100601.06
2019-04-29T08:32:58.917Z,100609.53
2019-04-29T08:35:36.427Z,100603.63
2019-04-29T08:38:07.166Z,100603.58
2019-04-29T08:40:45.223Z,100602.22
2019-04-29T08:43:44.449Z,100605.64
2019-04-29T08:46:25.260Z,100603.04
2019-04-29T08:49:01.054Z,100600.84
2019-04-29T08:51:33.444Z,100597.27
2019-04-29T08:54:07.117Z,100599.73
2019-04-29T08:56:42.507Z,100599.03
2019-04-29T08:59:14.745Z,100603.30
2019-04-29T09:01:47.858Z,100600.70
2019-04-29T09:04:22.439Z,100602.08
2019-04-29T09:06:55.915Z,100600.22
2019-04-29T09:09:29.808Z,100606.77
2019-04-29T09:12:03.090Z,100597.84
2019-04-29T09:14:36.773Z,100600.20
2019-04-29T09:17:20.128Z,100600.23
2019-04-29T09:19:46.244Z,100599.33
2019-04-29T09:22:21.648Z,100602.06
2019-04-29T09:25:12.283Z,100601.16
2019-04-29T09:27:48.244Z,100601.99
2019-04-29T09:30:21.484Z,100594.95
2019-04-29T09:32:54.538Z,100603.94
2019-04-29T09:35:28.895Z,100598.48
2019-04-29T09:38:02.174Z,100599.13
2019-04-29T09:40:40.139Z,100603.34
2019-04-29T09:43:43.140Z,100598.38
2019-04-29T09:46:20.620Z,100599.87
2019-04-29T09:48:54.513Z,100586.23
2019-04-29T09:51:29.689Z,100593.41
2019-04-29T09:54:02.580Z,100587.64
2019-04-29T09:56:36.601Z,100593.28
2019-04-29T09:59:26.261Z,100588.17
2019-04-29T10:02:33.076Z,100580.53
2019-04-29T10:05:24.604Z,100575.25
2019-04-29T10:07:57.281Z,100581.87
2019-04-29T10:10:30.334Z,100583.28
2019-04-29T10:13:03.737Z,100584.22
2019-04-29T10:15:51.722Z,100584.77
2019-04-29T10:18:53.553Z,100583.83
2019-04-29T10:21:27.280Z,100580.38
2019-04-29T10:24:00.077Z,100572.02
2019-04-29T10:26:33.534Z,100573.09
2019-04-29T10:29:13.732Z,100573.88
2019-04-29T10:31:46.706Z,100578.64
2019-04-29T10:34:19.666Z,100573.30
2019-04-29T10:36:53.626Z,100565.31
2019-04-29T10:40:10.891Z,100564.16
2019-04-29T10:42:42.906Z,100560.26
2019-04-29T10:45:25.581Z,100559.20
2019-04-29T10:48:08.803Z,100561.16
2019-04-29T10:50:42.286Z,100555.58
2019-04-29T10:53:17.361Z,100560.50
2019-04-29T10:55:50.760Z,100547.92
2019-04-29T10:58:30.169Z,100556.53
2019-04-29T11:02:01.395Z,100549.73
2019-04-29T11:04:36.562Z,100539.38
2019-04-29T11:07:26.569Z,100542.91
2019-04-29T11:09:58.677Z,100537.70
2019-04-29T11:12:31.633Z,100543.34
2019-04-29T11:15:04.994Z,100535.81
2019-04-29T11:17:39.808Z,100533.56
2019-04-29T11:20:15.774Z,100538.73
2019-04-29T11:22:56.829Z,100530.32
2019-04-29T11:25:53.030Z,100533.20
2019-04-29T11:28:27.157Z,100532.17
2019-04-29T11:31:00.991Z,100529.99
2019-04-29T11:33:44.690Z,100528.73
2019-04-29T11:36:19.418Z,100528.31
2019-04-29T11:38:53.406Z,100528.36
2019-04-29T11:41:29.951Z,100521.22
2019-04-29T11:44:04.207Z,100522.77
2019-04-29T11:46:37.190Z,100519.18
2019-04-29T11:49:11.729Z,100521.20
2019-04-29T11:52:07.650Z,100527.70
2019-04-29T11:54:21.639Z,100529.45
2019-04-29T11:56:54.951Z,100528.23
2019-04-29T11:59:46.391Z,100532.71
2019-04-29T12:02:44.674Z,100520.04
2019-04-29T12:05:25.458Z,100529.20
2019-04-29T12:07:58.919Z,100525.77
2019-04-29T12:10:32.404Z,100520.61
2019-04-29T12:13:08.366Z,100522.08
2019-04-29T12:15:55.499Z,100521.42
2019-04-29T12:18:34.153Z,100518.67
2019-04-29T12:21:15.925Z,100516.78
2019-04-29T12:23:52.037Z,100509.70
2019-04-29T12:26:25.084Z,100500.44
2019-04-29T12:28:58.976Z,100501.33
2019-04-29T12:31:54.781Z,100493.10
2019-04-29T12:34:46.404Z,100491.91
2019-04-29T12:37:39.187Z,100496.55
2019-04-29T12:40:30.161Z,100493.88
2019-04-29T12:43:34.893Z,100501.41
2019-04-29T12:46:12.910Z,100495.03
2019-04-29T12:48:45.912Z,100495.95
2019-04-29T12:51:19.675Z,100492.56
2019-04-29T12:53:52.768Z,100493.80
2019-04-29T12:56:34.190Z,100489.10
2019-04-29T12:59:08.215Z,100489.70
2019-04-29T13:01:55.875Z,100485.73
2019-04-29T13:04:45.126Z,100481.73
2019-04-29T13:07:34.665Z,100473.78
2019-04-29T13:10:14.448Z,100476.38
2019-04-29T13:12:48.181Z,100478.69
2019-04-29T13:15:39.650Z,100472.56
2019-04-29T13:18:23.229Z,100474.20
2019-04-29T13:20:53.865Z,100476.58
2019-04-29T13:23:34.866Z,100470.20
2019-04-29T13:26:01.746Z,100470.13
2019-04-29T13:28:51.741Z,100473.08
2019-04-29T13:31:10.270Z,100471.66
2019-04-29T13:33:45.980Z,100471.84
2019-04-29T13:36:25.819Z,100467.70
2019-04-29T13:38:56.248Z,100463.30
2019-04-29T13:41:30.090Z,100458.36
2019-04-29T13:44:05.787Z,100445.62
2019-04-29T13:46:56.671Z,100444.94
2019-04-29T13:49:37.246Z,100447.57
2019-04-29T13:52:11.095Z,100448.94
2019-04-29T13:54:44.686Z,100449.22
2019-04-29T13:57:18.031Z,100446.86
2019-04-29T14:00:04.027Z,100437.08
2019-04-29T14:02:59.880Z,100430.96
2019-04-29T14:05:36.697Z,100421.09
2019-04-29T14:08:07.451Z,100416.86
2019-04-29T14:10:41.434Z,100418.84
2019-04-29T14:13:17.646Z,100422.59
2019-04-29T14:15:49.157Z,100415.30
2019-04-29T14:18:22.526Z,100417.58
2019-04-29T14:20:55.688Z,100422.41
2019-04-29T14:23:29.098Z,100418.96
2019-04-29T14:26:02.072Z,100412.14
2019-04-29T14:28:35.648Z,100408.59
2019-04-29T14:31:08.745Z,100410.53
2019-04-29T14:33:50.985Z,100402.45
2019-04-29T14:36:24.652Z,100405.91
2019-04-29T14:38:59.837Z,100404.62
2019-04-29T14:41:35.113Z,100407.11
2019-04-29T14:44:42.542Z,100409.06
2019-04-29T14:47:32.892Z,100412.70
2019-04-29T14:50:10.579Z,100411.92
2019-04-29T14:52:44.790Z,100416.27
2019-04-29T14:55:20.061Z,100415.92
2019-04-29T14:57:53.786Z,100413.34
2019-04-29T15:00:44.541Z,100417.42
2019-04-29T15:03:18.771Z,100421.31
2019-04-29T15:05:52.357Z,100421.94
2019-04-29T15:08:26.438Z,100418.12
2019-04-29T15:11:04.124Z,100412.78
2019-04-29T15:13:34.759Z,100410.20
2019-04-29T15:16:15.523Z,100413.81
2019-04-29T15:19:12.669Z,100419.34
2019-04-29T15:21:49.634Z,100418.91
2019-04-29T15:24:22.682Z,100407.70
2019-04-29T15:26:56.000Z,100411.75
2019-04-29T15:29:29.314Z,100418.79
2019-04-29T15:32:02.113Z,100416.00
2019-04-29T15:34:35.424Z,100413.23
2019-04-29T15:37:08.688Z,100418.83
2019-04-29T15:39:46.054Z,100424.60
2019-04-29T15:42:17.023Z,100417.83
2019-04-29T15:44:51.592Z,100412.34
2019-04-29T15:47:30.640Z,100414.42
2019-04-29T15:50:01.821Z,100418.83
2019-04-29T15:52:35.136Z,100419.35
2019-04-29T15:55:08.707Z,100410.14
2019-04-29T15:57:49.419Z,100406.55
2019-04-29T16:00:21.966Z,100406.39
2019-04-29T16:02:53.007Z,100408.23
2019-04-29T16:06:11.177Z,100408.51
2019-04-29T16:08:33.877Z,100408.03
2019-04-29T16:11:44.598Z,100401.98
2019-04-29T16:14:21.953Z,100399.95
2019-04-29T16:16:59.380Z,100405.84
2019-04-29T16:19:32.927Z,100409.61
2019-04-29T16:22:06.890Z,100407.93
2019-04-29T16:24:40.261Z,100410.20
2019-04-29T16:27:14.834Z,100411.95
2019-04-29T16:29:51.728Z,100408.47
2019-04-29T16:32:36.588Z,100414.53
2019-04-29T16:35:10.694Z,100412.61
2019-04-29T16:37:43.825Z,100412.14
2019-04-29T16:40:17.341Z,100412.78
2019-04-29T16:42:57.955Z,100408.77
2019-04-29T16:45:57.017Z,100413.55
2019-04-29T16:48:31.041Z,100410.18
2019-04-29T16:51:06.666Z,100407.20
2019-04-29T16:53:39.657Z,100406.28
2019-04-29T16:56:16.255Z,100414.05
2019-04-29T16:58:48.692Z,100417.63
2019-04-29T17:01:22.826Z,100411.33
2019-04-29T17:04:04.648Z,100422.34
2019-04-29T17:06:35.873Z,100422.88
2019-04-29T17:09:26.187Z,100426.40
2019-04-29T17:12:00.462Z,100428.09
2019-04-29T17:15:00.873Z,100427.36
2019-04-29T17:17:14.553Z,100427.50
2019-04-29T17:19:48.557Z,100425.47
2019-04-29T17:22:25.974Z,100416.77
2019-04-29T17:24:57.378Z,100423.34
2019-04-29T17:27:45.382Z,100417.19
2019-04-29T17:30:54.287Z,100416.36
2019-04-29T17:33:48.729Z,100416.39
2019-04-29T17:36:18.537Z,100428.09
2019-04-29T17:38:49.873Z,100426.00
